createdAt,value
2018-04-13T00:01:40.677Z,20.62
2018-04-13T00:04:08.989Z,20.77
2018-04-13T00:06:36.529Z,19.90
2018-04-13T00:09:04.098Z,18.30
2018-04-13T00:11:31.641Z,17.70
2018-04-13T00:13:59.979Z,18.13
2018-04-13T00:16:27.552Z,18.50
2018-04-13T00:18:55.093Z,20.40
2018-04-13T00:21:22.651Z,17.37
2018-04-13T00:23:50.186Z,18.53
2018-04-13T00:26:17.749Z,17.13
2018-04-13T00:28:45.298Z,16.07
2018-04-13T00:31:12.833Z,17.53
2018-04-13T00:33:40.390Z,18.03
2018-04-13T00:36:07.922Z,17.00
2018-04-13T00:38:35.456Z,17.13
2018-04-13T00:41:03.025Z,16.70
2018-04-13T00:43:30.557Z,15.67
2018-04-13T00:45:58.122Z,16.30
2018-04-13T00:48:25.672Z,16.40
2018-04-13T00:50:53.224Z,15.43
2018-04-13T00:53:28.856Z,16.00
2018-04-13T00:55:56.407Z,15.40
2018-04-13T00:58:24.725Z,16.85
2018-04-13T01:00:52.258Z,16.00
2018-04-13T01:03:19.806Z,14.40
2018-04-13T01:05:47.369Z,14.80
2018-04-13T01:08:14.915Z,15.97
2018-04-13T01:10:43.270Z,15.90
2018-04-13T01:13:10.794Z,15.80
2018-04-13T01:15:38.330Z,15.00
2018-04-13T01:18:05.913Z,17.52
2018-04-13T01:20:33.471Z,18.20
2018-04-13T01:23:01.042Z,17.63
2018-04-13T01:25:28.568Z,17.30
2018-04-13T01:27:56.101Z,17.40
2018-04-13T01:30:24.412Z,17.47
2018-04-13T01:32:51.954Z,16.40
2018-04-13T01:35:19.537Z,17.77
2018-04-13T01:37:47.070Z,18.93
2018-04-13T01:40:15.361Z,17.13
2018-04-13T01:42:42.947Z,16.63
2018-04-13T01:45:10.493Z,18.20
2018-04-13T01:47:38.067Z,18.00
2018-04-13T01:50:05.625Z,20.80
2018-04-13T01:52:33.188Z,20.03
2018-04-13T01:55:00.747Z,19.83
2018-04-13T01:57:28.295Z,20.80
2018-04-13T01:59:55.844Z,20.23
2018-04-13T02:02:23.371Z,21.70
2018-04-13T02:04:51.685Z,20.80
2018-04-13T02:07:19.249Z,20.10
2018-04-13T02:09:46.809Z,22.80
2018-04-13T02:12:14.350Z,20.15
2018-04-13T02:14:41.924Z,21.47
2018-04-13T02:17:09.462Z,20.90
2018-04-13T02:19:36.995Z,19.50
2018-04-13T02:22:05.313Z,19.90
2018-04-13T02:24:32.868Z,21.30
2018-04-13T02:27:00.404Z,20.40
2018-04-13T02:29:28.740Z,19.47
2018-04-13T02:31:56.292Z,21.23
2018-04-13T02:34:23.861Z,22.90
2018-04-13T02:36:51.417Z,20.73
2018-04-13T02:39:18.990Z,21.80
2018-04-13T02:41:47.308Z,22.33
2018-04-13T02:44:14.877Z,24.10
2018-04-13T02:46:42.420Z,23.33
2018-04-13T02:49:09.980Z,21.57
2018-04-13T02:51:37.540Z,21.57
2018-04-13T02:54:05.079Z,22.90
2018-04-13T02:56:33.382Z,20.70
2018-04-13T02:59:00.937Z,22.67
2018-04-13T03:01:28.482Z,24.63
2018-04-13T03:03:56.039Z,22.30
2018-04-13T03:06:23.624Z,23.77
2018-04-13T03:08:51.170Z,24.90
2018-04-13T03:11:18.712Z,27.30
2018-04-13T03:13:47.057Z,27.70
2018-04-13T03:16:14.611Z,25.07
2018-04-13T03:18:42.162Z,25.97
2018-04-13T03:21:09.752Z,27.80
2018-04-13T03:23:37.294Z,27.50
2018-04-13T03:26:04.845Z,28.40
2018-04-13T03:28:32.400Z,29.90
2018-04-13T03:30:59.938Z,29.77
2018-04-13T03:33:28.253Z,31.97
2018-04-13T03:35:55.821Z,29.70
2018-04-13T03:38:23.372Z,30.67
2018-04-13T03:40:50.932Z,32.20
2018-04-13T03:43:18.483Z,31.80
2018-04-13T03:45:46.023Z,34.07
2018-04-13T03:48:13.543Z,32.45
2018-04-13T03:50:41.884Z,31.63
2018-04-13T03:53:09.440Z,33.07
2018-04-13T03:55:36.980Z,33.10
2018-04-13T03:58:04.546Z,30.30
2018-04-13T04:00:32.086Z,31.60
2018-04-13T04:02:59.625Z,28.63
2018-04-13T04:05:27.185Z,29.77
2018-04-13T04:07:54.748Z,32.37
2018-04-13T04:10:22.312Z,32.60
2018-04-13T04:12:49.897Z,33.20
2018-04-13T04:15:17.462Z,35.20
2018-04-13T04:17:45.009Z,33.30
2018-04-13T04:20:24.635Z,34.17
2018-04-13T04:23:04.000Z,36.33
2018-04-13T04:25:58.168Z,36.17
2018-04-13T04:28:25.714Z,34.50
2018-04-13T04:30:53.253Z,33.33
2018-04-13T04:33:20.833Z,32.80
2018-04-13T04:35:48.390Z,33.70
2018-04-13T04:38:15.942Z,34.73
2018-04-13T04:40:43.506Z,34.70
2018-04-13T04:43:11.033Z,33.90
2018-04-13T04:45:39.353Z,33.60
2018-04-13T04:48:06.961Z,33.27
2018-04-13T04:50:34.496Z,34.03
2018-04-13T04:53:02.046Z,32.23
2018-04-13T04:55:29.628Z,32.70
2018-04-13T04:57:57.165Z,35.33
2018-04-13T05:00:24.720Z,38.00
2018-04-13T05:02:52.321Z,37.30
2018-04-13T05:05:20.641Z,38.97
2018-04-13T05:07:48.197Z,43.60
2018-04-13T05:10:15.758Z,43.47
2018-04-13T05:12:43.284Z,46.67
2018-04-13T05:15:10.825Z,48.97
2018-04-13T05:17:38.398Z,48.47
2018-04-13T05:20:06.720Z,49.37
2018-04-13T05:22:34.282Z,51.27
2018-04-13T05:25:01.816Z,55.40
2018-04-13T05:27:29.364Z,56.90
2018-04-13T05:29:57.687Z,54.67
2018-04-13T05:32:25.243Z,53.93
2018-04-13T05:34:52.786Z,58.13
2018-04-13T05:37:20.321Z,56.43
2018-04-13T05:39:48.658Z,61.07
2018-04-13T05:42:16.215Z,59.50
2018-04-13T05:44:43.774Z,61.17
2018-04-13T05:47:11.362Z,62.30
2018-04-13T05:49:39.669Z,60.80
2018-04-13T05:52:07.200Z,63.43
2018-04-13T05:54:35.526Z,60.17
2018-04-13T05:57:03.084Z,61.83
2018-04-13T05:59:30.630Z,61.33
2018-04-13T06:01:58.203Z,64.73
2018-04-13T06:04:25.767Z,65.77
2018-04-13T06:06:53.323Z,66.50
2018-04-13T06:09:20.867Z,66.30
2018-04-13T06:11:48.408Z,65.37
2018-04-13T06:14:16.731Z,68.07
2018-04-13T06:16:44.286Z,67.00
2018-04-13T06:19:11.822Z,69.10
2018-04-13T06:21:39.382Z,77.25
2018-04-13T06:24:06.926Z,70.53
2018-04-13T06:26:34.471Z,68.20
2018-04-13T06:29:02.810Z,67.20
2018-04-13T06:31:30.347Z,68.73
2018-04-13T06:33:57.901Z,66.60
2018-04-13T06:36:25.457Z,68.77
2018-04-13T06:38:53.006Z,67.87
2018-04-13T06:41:20.551Z,67.07
2018-04-13T06:43:48.136Z,69.70
2018-04-13T06:46:15.696Z,68.87
2018-04-13T06:48:43.293Z,69.60
2018-04-13T06:51:10.847Z,67.70
2018-04-13T06:53:38.408Z,68.60
2018-04-13T06:56:05.944Z,68.13
2018-04-13T06:58:33.512Z,68.40
2018-04-13T07:01:01.043Z,67.53
2018-04-13T07:03:28.568Z,70.97
2018-04-13T07:05:56.901Z,69.53
2018-04-13T07:08:24.474Z,72.17
2018-04-13T07:10:52.029Z,73.23
2018-04-13T07:13:19.585Z,73.17
2018-04-13T07:15:47.140Z,69.23
2018-04-13T07:18:14.708Z,71.90
2018-04-13T07:20:42.282Z,72.17
2018-04-13T07:23:09.819Z,74.13
2018-04-13T07:25:37.374Z,71.20
2018-04-13T07:28:05.171Z,69.40
2018-04-13T07:30:33.514Z,74.00
2018-04-13T07:33:01.048Z,71.83
2018-04-13T07:35:28.626Z,74.43
2018-04-13T07:37:56.186Z,74.10
2018-04-13T07:40:23.714Z,73.10
2018-04-13T07:42:52.147Z,76.70
2018-04-13T07:45:19.591Z,80.10
2018-04-13T07:47:47.123Z,80.13
2018-04-13T07:50:14.695Z,82.37
2018-04-13T07:52:42.240Z,80.13
2018-04-13T07:55:09.776Z,80.30
2018-04-13T07:57:38.132Z,81.10
2018-04-13T08:00:05.689Z,79.67
2018-04-13T08:02:33.231Z,81.30
2018-04-13T08:05:00.809Z,81.00
2018-04-13T08:07:28.365Z,81.00
2018-04-13T08:09:55.904Z,81.43
2018-04-13T08:12:23.523Z,76.03
2018-04-13T08:14:51.042Z,80.40
2018-04-13T08:17:18.624Z,78.73
2018-04-13T08:19:46.958Z,82.87
2018-04-13T08:22:14.497Z,79.83
2018-04-13T08:24:42.044Z,79.90
2018-04-13T08:27:09.628Z,74.93
2018-04-13T08:29:37.176Z,82.07
2018-04-13T08:32:04.746Z,81.80
2018-04-13T08:34:32.311Z,79.40
2018-04-13T08:36:59.873Z,80.00
2018-04-13T08:39:27.403Z,81.07
2018-04-13T08:41:54.979Z,76.40
2018-04-13T08:44:22.508Z,74.67
2018-04-13T08:46:50.808Z,71.80
2018-04-13T08:49:18.527Z,72.13
2018-04-13T08:51:45.952Z,72.13
2018-04-13T08:54:13.512Z,73.73
2018-04-13T08:56:41.085Z,70.37
2018-04-13T08:59:08.626Z,67.20
2018-04-13T09:01:36.187Z,72.00
2018-04-13T09:04:03.754Z,68.47
2018-04-13T09:06:31.372Z,69.93
2018-04-13T09:08:59.002Z,66.70
2018-04-13T09:11:26.532Z,68.40
2018-04-13T09:13:54.069Z,64.60
2018-04-13T09:16:21.637Z,65.17
2018-04-13T09:18:49.190Z,64.87
2018-04-13T09:21:16.756Z,66.00
2018-04-13T09:23:45.094Z,70.43
2018-04-13T09:26:13.444Z,66.30
2018-04-13T09:28:41.000Z,69.40
2018-04-13T09:31:08.559Z,68.70
2018-04-13T09:33:36.111Z,69.00
2018-04-13T09:36:03.646Z,69.77
2018-04-13T09:38:31.203Z,70.30
2018-04-13T09:40:58.743Z,69.23
2018-04-13T09:43:26.283Z,65.73
2018-04-13T09:45:54.622Z,67.23
2018-04-13T09:48:22.183Z,76.80
2018-04-13T09:50:49.724Z,65.83
2018-04-13T09:53:17.289Z,65.83
2018-04-13T09:55:44.821Z,69.67
2018-04-13T09:58:12.374Z,67.70
2018-04-13T10:00:39.957Z,64.80
2018-04-13T10:03:13.288Z,68.40
2018-04-13T10:05:40.854Z,65.60
2018-04-13T10:08:08.443Z,66.60
2018-04-13T10:10:36.001Z,68.70
2018-04-13T10:13:04.353Z,67.17
2018-04-13T10:15:31.924Z,61.37
2018-04-13T10:18:00.261Z,60.67
2018-04-13T10:20:27.821Z,60.97
2018-04-13T10:22:55.358Z,60.33
2018-04-13T10:25:22.902Z,58.27
2018-04-13T10:27:51.244Z,59.07
2018-04-13T10:30:18.788Z,56.23
2018-04-13T10:32:46.341Z,53.53
2018-04-13T10:35:13.934Z,51.07
2018-04-13T10:37:42.249Z,49.67
2018-04-13T10:40:09.783Z,50.23
2018-04-13T10:42:38.114Z,48.60
2018-04-13T10:45:05.643Z,46.53
2018-04-13T10:47:33.204Z,49.63
2018-04-13T10:50:00.776Z,50.43
2018-04-13T10:52:28.321Z,52.67
2018-04-13T10:54:55.910Z,48.87
2018-04-13T10:57:23.474Z,48.47
2018-04-13T10:59:51.013Z,49.43
2018-04-13T11:02:18.579Z,50.67
2018-04-13T11:04:46.136Z,51.70
2018-04-13T11:07:13.666Z,51.10
2018-04-13T11:09:41.214Z,50.27
2018-04-13T11:12:09.531Z,49.77
2018-04-13T11:14:37.055Z,50.00
2018-04-13T11:17:04.615Z,45.83
2018-04-13T11:19:32.196Z,48.60
2018-04-13T11:21:59.745Z,46.90
2018-04-13T11:24:27.295Z,52.85
2018-04-13T11:26:55.042Z,47.77
2018-04-13T11:29:22.618Z,46.77
2018-04-13T11:31:50.903Z,47.17
2018-04-13T11:34:18.473Z,46.30
2018-04-13T11:36:46.046Z,42.23
2018-04-13T11:39:13.587Z,45.27
2018-04-13T11:41:41.179Z,44.80
2018-04-13T11:44:08.718Z,43.77
2018-04-13T11:46:36.269Z,44.17
2018-04-13T11:49:03.831Z,48.43
2018-04-13T11:51:31.378Z,44.10
2018-04-13T11:53:58.922Z,47.60
2018-04-13T11:56:27.240Z,45.87
2018-04-13T11:58:54.778Z,46.60
2018-04-13T12:01:23.107Z,49.00
2018-04-13T12:03:50.680Z,47.43
2018-04-13T12:06:18.994Z,50.53
2018-04-13T12:08:46.526Z,48.87
2018-04-13T12:11:14.846Z,49.70
2018-04-13T12:13:42.374Z,47.57
2018-04-13T12:16:09.916Z,51.97
2018-04-13T12:18:38.238Z,52.67
2018-04-13T12:21:05.798Z,52.03
2018-04-13T12:23:33.337Z,53.37
2018-04-13T12:26:00.893Z,51.60
2018-04-13T12:28:28.457Z,47.60
2018-04-13T12:30:56.028Z,42.70
2018-04-13T12:33:23.575Z,44.53
2018-04-13T12:35:51.136Z,41.80
2018-04-13T12:38:18.731Z,40.03
2018-04-13T12:40:46.255Z,43.30
2018-04-13T12:43:13.810Z,42.70
2018-04-13T12:45:41.366Z,44.40
2018-04-13T12:48:08.908Z,40.00
2018-04-13T12:50:37.226Z,38.03
2018-04-13T12:53:04.803Z,32.60
2018-04-13T12:55:32.362Z,38.60
2018-04-13T12:57:59.898Z,34.30
2018-04-13T13:00:27.452Z,35.13
2018-04-13T13:02:55.005Z,34.10
2018-04-13T13:05:22.566Z,22.47
2018-04-13T13:07:50.116Z,29.40
2018-04-13T13:10:17.656Z,29.03
2018-04-13T13:12:45.968Z,29.00
2018-04-13T13:15:13.515Z,29.60
2018-04-13T13:17:41.057Z,30.57
2018-04-13T13:20:09.382Z,30.17
2018-04-13T13:22:36.936Z,30.20
2018-04-13T13:25:04.494Z,29.30
2018-04-13T13:27:32.055Z,29.20
2018-04-13T13:29:59.627Z,29.83
2018-04-13T13:32:27.165Z,32.07
2018-04-13T13:34:54.718Z,32.63
2018-04-13T13:37:22.281Z,30.27
2018-04-13T13:39:49.830Z,28.90
2018-04-13T13:42:17.357Z,28.80
2018-04-13T13:44:45.666Z,30.50
2018-04-13T13:47:13.241Z,29.80
2018-04-13T13:49:40.795Z,31.33
2018-04-13T13:52:08.333Z,28.97
2018-04-13T13:54:35.894Z,28.77
2018-04-13T13:57:03.443Z,26.70
2018-04-13T13:59:31.756Z,28.00
2018-04-13T14:01:59.310Z,27.87
2018-04-13T14:04:26.856Z,29.00
2018-04-13T14:06:54.390Z,27.30
2018-04-13T14:09:22.722Z,28.20
2018-04-13T14:11:50.263Z,29.77
2018-04-13T14:14:17.804Z,26.83
2018-04-13T14:16:45.341Z,26.90
2018-04-13T14:19:13.654Z,26.73
2018-04-13T14:21:41.219Z,28.10
2018-04-13T14:24:08.788Z,26.03
2018-04-13T14:26:36.362Z,26.67
2018-04-13T14:29:03.902Z,26.93
2018-04-13T14:31:31.482Z,25.10
2018-04-13T14:33:59.036Z,26.70
2018-04-13T14:36:26.588Z,29.97
2018-04-13T14:38:54.119Z,26.43
2018-04-13T14:41:21.670Z,27.00
2018-04-13T14:43:49.196Z,26.40
2018-04-13T14:46:16.737Z,28.53
2018-04-13T14:48:44.280Z,28.30
2018-04-13T14:51:11.858Z,30.20
2018-04-13T14:53:39.395Z,27.50
2018-04-13T14:56:06.978Z,30.00
2018-04-13T14:58:35.298Z,29.97
2018-04-13T15:01:03.309Z,27.93
2018-04-13T15:03:30.844Z,28.70
2018-04-13T15:05:58.395Z,29.33
2018-04-13T15:08:25.959Z,30.40
2018-04-13T15:10:53.515Z,31.10
2018-04-13T15:13:21.097Z,33.17
2018-04-13T15:15:48.664Z,31.37
2018-04-13T15:18:16.214Z,31.80
2018-04-13T15:20:44.544Z,32.63
2018-04-13T15:23:12.864Z,32.00
2018-04-13T15:25:40.417Z,30.70
2018-04-13T15:28:07.973Z,32.87
2018-04-13T15:30:35.523Z,33.40
2018-04-13T15:33:03.065Z,33.60
2018-04-13T15:35:31.400Z,34.10
2018-04-13T15:37:58.994Z,35.50
2018-04-13T15:40:27.323Z,33.73
2018-04-13T15:42:54.886Z,35.87
2018-04-13T15:45:22.432Z,36.87
2018-04-13T15:47:50.289Z,37.60
2018-04-13T15:50:17.883Z,38.77
2018-04-13T15:52:45.434Z,37.20
2018-04-13T15:55:12.985Z,38.43
2018-04-13T15:57:40.529Z,37.90
2018-04-13T16:00:08.076Z,42.87
2018-04-13T16:02:35.634Z,41.03
2018-04-13T16:05:03.203Z,41.95
2018-04-13T16:07:30.737Z,39.93
2018-04-13T16:09:59.054Z,40.67
2018-04-13T16:12:26.605Z,37.77
2018-04-13T16:14:54.184Z,37.90
2018-04-13T16:17:21.794Z,38.60
2018-04-13T16:19:56.501Z,33.07
2018-04-13T16:22:24.056Z,36.33
2018-04-13T16:24:51.608Z,35.77
2018-04-13T16:27:19.154Z,35.35
2018-04-13T16:29:46.723Z,32.77
2018-04-13T16:32:14.247Z,33.07
2018-04-13T16:34:41.815Z,31.67
2018-04-13T16:37:09.344Z,32.53
2018-04-13T16:39:36.906Z,32.37
2018-04-13T16:42:04.447Z,31.40
2018-04-13T16:44:32.006Z,30.13
2018-04-13T16:47:00.327Z,28.80
2018-04-13T16:49:27.866Z,27.73
2018-04-13T16:51:55.444Z,28.90
2018-04-13T16:54:22.975Z,26.83
2018-04-13T16:56:50.537Z,28.10
2018-04-13T16:59:18.078Z,29.37
2018-04-13T17:01:46.396Z,28.47
2018-04-13T17:04:13.962Z,26.30
2018-04-13T17:06:41.504Z,27.67
2018-04-13T17:09:09.053Z,25.47
2018-04-13T17:11:36.629Z,28.13
2018-04-13T17:14:04.185Z,28.17
2018-04-13T17:16:31.759Z,27.40
2018-04-13T17:18:59.317Z,27.47
2018-04-13T17:21:26.888Z,28.83
2018-04-13T17:23:54.429Z,27.80
2018-04-13T17:26:22.021Z,24.83
2018-04-13T17:28:49.551Z,25.13
2018-04-13T17:31:17.098Z,26.00
2018-04-13T17:33:44.654Z,25.30
2018-04-13T17:36:12.975Z,25.50
2018-04-13T17:38:40.514Z,27.13
2018-04-13T17:41:08.088Z,25.10
2018-04-13T17:43:36.445Z,25.63
2018-04-13T17:46:04.028Z,25.53
2018-04-13T17:48:31.562Z,24.83
2018-04-13T17:50:59.118Z,25.00
2018-04-13T17:53:26.646Z,25.33
2018-04-13T17:55:54.216Z,23.67
2018-04-13T17:58:21.773Z,25.90
2018-04-13T18:00:49.337Z,26.93
2018-04-13T18:03:16.892Z,24.80
2018-04-13T18:05:44.469Z,23.83
2018-04-13T18:08:12.033Z,26.00
2018-04-13T18:10:39.585Z,24.93
2018-04-13T18:13:07.209Z,24.07
2018-04-13T18:15:36.356Z,26.30
2018-04-13T18:18:03.907Z,27.13
2018-04-13T18:20:31.462Z,26.93
2018-04-13T18:22:59.008Z,26.80
2018-04-13T18:25:26.601Z,28.03
2018-04-13T18:27:54.141Z,30.57
2018-04-13T18:30:21.712Z,29.80
2018-04-13T18:32:49.240Z,27.93
2018-04-13T18:35:17.730Z,29.17
2018-04-13T18:37:45.260Z,29.70
2018-04-13T18:40:13.599Z,29.43
2018-04-13T18:42:41.127Z,27.70
2018-04-13T18:45:08.691Z,30.57
2018-04-13T18:47:36.347Z,29.53
2018-04-13T18:50:03.901Z,28.50
2018-04-13T18:52:31.448Z,29.43
2018-04-13T18:54:59.767Z,28.40
2018-04-13T18:57:27.330Z,29.67
2018-04-13T18:59:54.878Z,30.40
2018-04-13T19:02:22.436Z,29.67
2018-04-13T19:04:49.978Z,29.40
2018-04-13T19:07:18.314Z,27.73
2018-04-13T19:09:45.840Z,27.53
2018-04-13T19:12:13.375Z,26.60
2018-04-13T19:14:40.942Z,29.33
2018-04-13T19:17:08.481Z,29.20
2018-04-13T19:19:36.044Z,26.50
2018-04-13T19:22:03.615Z,28.20
2018-04-13T19:24:31.197Z,26.83
2018-04-13T19:26:58.762Z,27.07
2018-04-13T19:29:26.291Z,27.57
2018-04-13T19:31:53.865Z,28.30
2018-04-13T19:34:21.428Z,30.17
2018-04-13T19:36:49.024Z,27.10
2018-04-13T19:39:17.420Z,28.20
2018-04-13T19:41:45.080Z,27.77
2018-04-13T19:44:13.456Z,30.87
2018-04-13T19:46:41.802Z,30.10
2018-04-13T19:49:09.342Z,31.03
2018-04-13T19:51:37.033Z,30.92
2018-04-13T19:54:05.378Z,31.23
2018-04-13T19:56:33.051Z,30.37
2018-04-13T19:59:00.638Z,31.57
2018-04-13T20:01:28.192Z,30.37
2018-04-13T20:03:55.987Z,30.30
2018-04-13T20:06:23.555Z,32.50
2018-04-13T20:08:51.104Z,33.27
2018-04-13T20:11:18.685Z,31.27
2018-04-13T20:13:46.231Z,37.97
2018-04-13T20:16:21.968Z,34.00
2018-04-13T20:18:49.527Z,31.80
2018-04-13T20:21:18.987Z,33.17
2018-04-13T20:23:46.579Z,31.40
2018-04-13T20:26:16.051Z,33.67
2018-04-13T20:28:43.726Z,34.67
2018-04-13T20:31:11.282Z,35.40
2018-04-13T20:33:38.861Z,34.07
2018-04-13T20:36:07.210Z,38.00
2018-04-13T20:38:34.790Z,35.90
2018-04-13T20:41:02.376Z,38.53
2018-04-13T20:43:29.918Z,39.57
2018-04-13T20:45:57.494Z,37.90
2018-04-13T20:48:25.073Z,40.87
2018-04-13T20:50:52.630Z,39.07
2018-04-13T20:53:20.930Z,38.40
2018-04-13T20:55:49.291Z,39.67
2018-04-13T20:58:16.834Z,39.40
2018-04-13T21:00:45.141Z,39.83
2018-04-13T21:03:12.668Z,40.30
2018-04-13T21:05:40.996Z,38.57
2018-04-13T21:08:08.554Z,39.47
2018-04-13T21:10:36.126Z,40.93
2018-04-13T21:13:03.688Z,41.43
2018-04-13T21:15:31.273Z,38.93
2018-04-13T21:17:58.804Z,38.97
2018-04-13T21:20:26.421Z,41.70
2018-04-13T21:22:53.979Z,39.80
2018-04-13T21:25:21.540Z,42.93
2018-04-13T21:27:49.081Z,44.33
2018-04-13T21:30:17.406Z,41.37
2018-04-13T21:32:44.962Z,44.40
2018-04-13T21:35:12.510Z,41.07
2018-04-13T21:37:40.080Z,40.97
2018-04-13T21:40:07.617Z,44.60
2018-04-13T21:42:35.180Z,44.83
2018-04-13T21:45:02.883Z,44.40
2018-04-13T21:47:30.444Z,43.00
2018-04-13T21:49:57.980Z,43.90
2018-04-13T21:52:25.576Z,46.17
2018-04-13T21:54:53.135Z,44.77
2018-04-13T21:57:20.684Z,43.10
2018-04-13T21:59:48.250Z,44.50
2018-04-13T22:02:15.801Z,46.50
2018-04-13T22:04:43.347Z,44.23
2018-04-13T22:07:10.936Z,46.80
2018-04-13T22:09:38.472Z,47.33
2018-04-13T22:12:17.805Z,44.97
2018-04-13T22:14:55.378Z,44.27
2018-04-13T22:17:22.966Z,45.47
2018-04-13T22:19:50.510Z,45.20
2018-04-13T22:22:18.053Z,50.85
2018-04-13T22:24:45.613Z,46.67
2018-04-13T22:27:13.151Z,47.03
2018-04-13T22:29:41.441Z,46.93
2018-04-13T22:32:09.015Z,46.80
2018-04-13T22:34:36.620Z,46.80
2018-04-13T22:37:04.126Z,47.40
2018-04-13T22:39:31.709Z,47.77
2018-04-13T22:41:59.261Z,51.60
2018-04-13T22:44:26.827Z,48.37
2018-04-13T22:46:54.820Z,49.87
2018-04-13T22:49:22.386Z,49.10
2018-04-13T22:51:49.917Z,47.17
2018-04-13T22:54:17.494Z,50.20
2018-04-13T22:56:45.037Z,48.93
2018-04-13T22:59:12.613Z,50.33
2018-04-13T23:01:40.201Z,48.20
2018-04-13T23:04:08.560Z,51.03
2018-04-13T23:06:36.107Z,52.37
2018-04-13T23:09:03.694Z,48.80
2018-04-13T23:11:31.993Z,50.70
2018-04-13T23:13:59.548Z,48.37
2018-04-13T23:16:27.148Z,50.80
2018-04-13T23:18:54.702Z,49.40
2018-04-13T23:21:22.274Z,53.37
2018-04-13T23:23:49.868Z,51.43
2018-04-13T23:26:18.211Z,49.33
2018-04-13T23:28:45.762Z,50.60
2018-04-13T23:31:13.358Z,49.80
2018-04-13T23:33:41.690Z,50.63
2018-04-13T23:36:09.265Z,49.50
2018-04-13T23:38:36.868Z,49.37
2018-04-13T23:41:05.202Z,53.83
2018-04-13T23:43:32.763Z,52.27
2018-04-13T23:46:00.343Z,51.07
2018-04-13T23:48:27.896Z,52.20
2018-04-13T23:50:55.494Z,54.50
2018-04-13T23:53:23.116Z,53.43
2018-04-13T23:55:50.669Z,53.03
2018-04-13T23:58:18.219Z,56.05
